createdAt,value
2019-02-23T00:00:05.221Z,3.50
2019-02-23T00:02:33.656Z,3.40
2019-02-23T00:05:02.101Z,3.40
2019-02-23T00:07:30.598Z,3.30
2019-02-23T00:09:59.038Z,3.30
2019-02-23T00:12:27.653Z,3.20
2019-02-23T00:14:56.156Z,3.10
2019-02-23T00:17:24.581Z,3.10
2019-02-23T00:19:53.086Z,2.90
2019-02-23T00:22:21.623Z,2.90
2019-02-23T00:24:50.050Z,2.90
2019-02-23T00:27:18.798Z,2.80
2019-02-23T00:29:47.226Z,2.70
2019-02-23T00:32:15.685Z,2.70
2019-02-23T00:34:44.671Z,2.60
2019-02-23T00:37:13.342Z,2.60
2019-02-23T00:39:41.862Z,2.60
2019-02-23T00:42:10.469Z,2.50
2019-02-23T00:44:38.889Z,2.50
2019-02-23T00:47:07.562Z,2.40
2019-02-23T00:49:36.770Z,2.40
2019-02-23T00:52:05.765Z,2.40
2019-02-23T00:54:34.271Z,2.30
2019-02-23T00:57:02.806Z,2.30
2019-02-23T00:59:31.230Z,2.20
2019-02-23T01:01:59.761Z,2.20
2019-02-23T01:04:28.597Z,2.10
2019-02-23T01:06:57.252Z,2.10
2019-02-23T01:09:25.924Z,2.00
2019-02-23T01:11:54.427Z,2.00
2019-02-23T01:14:22.846Z,2.00
2019-02-23T01:16:51.366Z,2.00
2019-02-23T01:19:20.045Z,1.90
2019-02-23T01:21:48.501Z,1.90
2019-02-23T01:24:17.092Z,1.80
2019-02-23T01:26:45.601Z,1.80
2019-02-23T01:29:14.329Z,1.80
2019-02-23T01:34:03.701Z,1.70
2019-02-23T01:36:32.142Z,1.70
2019-02-23T01:39:00.569Z,1.60
2019-02-23T01:41:29.402Z,1.60
2019-02-23T01:44:00.396Z,1.60
2019-02-23T01:46:28.016Z,1.50
2019-02-23T01:48:56.505Z,1.50
2019-02-23T01:51:25.229Z,1.50
2019-02-23T01:53:53.653Z,1.50
2019-02-23T01:56:22.102Z,1.40
2019-02-23T01:58:50.525Z,1.40
2019-02-23T02:01:19.157Z,1.30
2019-02-23T02:03:47.569Z,1.30
2019-02-23T02:06:16.550Z,1.30
2019-02-23T02:08:45.722Z,1.30
2019-02-23T02:11:14.237Z,1.20
2019-02-23T02:13:42.649Z,1.20
2019-02-23T02:16:11.186Z,1.20
2019-02-23T02:18:39.613Z,1.20
2019-02-23T02:21:08.038Z,1.10
2019-02-23T02:23:36.473Z,1.10
2019-02-23T02:26:05.033Z,1.00
2019-02-23T02:28:33.469Z,1.00
2019-02-23T02:31:01.900Z,1.00
2019-02-23T02:33:30.651Z,0.90
2019-02-23T02:35:59.085Z,0.90
2019-02-23T02:38:27.519Z,0.90
2019-02-23T02:40:55.940Z,0.90
2019-02-23T02:43:24.377Z,0.90
2019-02-23T02:45:52.797Z,0.80
2019-02-23T02:48:21.232Z,0.80
2019-02-23T02:50:49.658Z,0.80
2019-02-23T02:53:18.092Z,0.70
2019-02-23T02:55:46.512Z,0.70
2019-02-23T02:58:15.043Z,0.70
2019-02-23T03:00:43.457Z,0.60
2019-02-23T03:03:11.907Z,0.60
2019-02-23T03:05:40.399Z,0.60
2019-02-23T03:08:09.082Z,0.60
2019-02-23T03:10:37.506Z,0.60
2019-02-23T03:13:05.949Z,0.60
2019-02-23T03:15:34.379Z,0.50
2019-02-23T03:18:02.976Z,0.50
2019-02-23T03:20:36.715Z,0.50
2019-02-23T03:23:01.873Z,0.50
2019-02-23T03:25:30.289Z,0.50
2019-02-23T03:27:58.733Z,0.40
2019-02-23T03:30:27.159Z,0.40
2019-02-23T03:32:55.589Z,0.40
2019-02-23T03:35:24.043Z,0.40
2019-02-23T03:37:52.475Z,0.40
2019-02-23T03:40:20.894Z,0.30
2019-02-23T03:42:49.681Z,0.30
2019-02-23T03:45:18.109Z,0.30
2019-02-23T03:47:46.549Z,0.30
2019-02-23T03:50:14.973Z,0.30
2019-02-23T03:52:43.410Z,0.20
2019-02-23T03:55:12.002Z,0.20
2019-02-23T03:57:40.773Z,0.20
2019-02-23T04:00:10.243Z,0.20
2019-02-23T04:02:38.665Z,0.20
2019-02-23T04:05:07.250Z,0.20
2019-02-23T04:07:35.673Z,0.10
2019-02-23T04:10:23.445Z,0.10
2019-02-23T04:12:51.885Z,0.10
2019-02-23T04:15:20.626Z,0.00
2019-02-23T04:17:49.045Z,0.00
2019-02-23T04:20:17.485Z,0.00
2019-02-23T04:22:45.916Z,-0.10
2019-02-23T04:25:14.357Z,-0.10
2019-02-23T04:27:44.658Z,-0.10
2019-02-23T04:30:13.170Z,-0.10
2019-02-23T04:32:41.603Z,-0.10
2019-02-23T04:35:10.037Z,-0.10
2019-02-23T04:37:38.472Z,-0.20
2019-02-23T04:40:07.548Z,-0.20
2019-02-23T04:42:35.977Z,-0.30
2019-02-23T04:45:06.068Z,-0.20
2019-02-23T04:47:34.498Z,-0.20
2019-02-23T04:50:02.964Z,-0.30
2019-02-23T04:52:31.503Z,-0.30
2019-02-23T04:54:59.942Z,-0.30
2019-02-23T04:57:28.369Z,-0.30
2019-02-23T04:59:56.826Z,-0.30
2019-02-23T05:02:25.261Z,-0.30
2019-02-23T05:04:53.700Z,-0.30
2019-02-23T05:07:22.372Z,-0.40
2019-02-23T05:09:50.813Z,-0.40
2019-02-23T05:12:19.593Z,-0.40
2019-02-23T05:14:48.049Z,-0.40
2019-02-23T05:17:16.509Z,-0.50
2019-02-23T05:19:45.249Z,-0.40
2019-02-23T05:22:13.749Z,-0.50
2019-02-23T05:24:42.265Z,-0.50
2019-02-23T05:27:10.933Z,-0.50
2019-02-23T05:29:39.681Z,-0.50
2019-02-23T05:32:08.106Z,-0.60
2019-02-23T05:34:36.854Z,-0.50
2019-02-23T05:37:05.534Z,-0.60
2019-02-23T05:39:33.993Z,-0.60
2019-02-23T05:42:02.423Z,-0.60
2019-02-23T05:44:30.880Z,-0.60
2019-02-23T05:46:59.588Z,-0.70
2019-02-23T05:49:28.029Z,-0.70
2019-02-23T05:51:56.732Z,-0.70
2019-02-23T05:54:25.250Z,-0.70
2019-02-23T05:56:53.678Z,-0.70
2019-02-23T05:59:22.117Z,-0.70
2019-02-23T06:01:50.537Z,-0.70
2019-02-23T06:04:18.983Z,-0.70
2019-02-23T06:06:47.410Z,-0.70
2019-02-23T06:09:16.210Z,-0.70
2019-02-23T06:11:44.642Z,-0.80
2019-02-23T06:14:13.087Z,-0.70
2019-02-23T06:16:41.525Z,-0.80
2019-02-23T06:19:10.207Z,-0.70
2019-02-23T06:21:52.319Z,-0.80
2019-02-23T06:24:09.058Z,-0.80
2019-02-23T06:26:37.833Z,-0.80
2019-02-23T06:29:06.297Z,-0.70
2019-02-23T06:31:34.781Z,-0.80
2019-02-23T06:34:12.503Z,-0.70
2019-02-23T06:36:33.376Z,-0.70
2019-02-23T06:39:02.085Z,-0.70
2019-02-23T06:41:30.532Z,-0.70
2019-02-23T06:43:58.966Z,-0.60
2019-02-23T06:46:27.690Z,-0.60
2019-02-23T06:48:56.148Z,-0.60
2019-02-23T06:51:24.585Z,-0.60
2019-02-23T06:53:53.267Z,-0.60
2019-02-23T06:56:21.721Z,-0.60
2019-02-23T06:58:50.190Z,-0.50
2019-02-23T07:01:18.626Z,-0.50
2019-02-23T07:03:47.084Z,-0.50
2019-02-23T07:06:15.794Z,-0.40
2019-02-23T07:08:44.391Z,-0.40
2019-02-23T07:11:13.171Z,-0.40
2019-02-23T07:13:41.856Z,-0.40
2019-02-23T07:16:10.339Z,-0.40
2019-02-23T07:18:38.905Z,-0.40
2019-02-23T07:21:07.710Z,-0.40
2019-02-23T07:23:36.137Z,-0.40
2019-02-23T07:26:04.593Z,-0.40
2019-02-23T07:28:33.060Z,-0.40
2019-02-23T07:31:01.753Z,-0.40
2019-02-23T07:33:33.084Z,-0.40
2019-02-23T07:36:00.389Z,-0.30
2019-02-23T07:38:28.830Z,-0.40
2019-02-23T07:40:57.609Z,-0.30
2019-02-23T07:43:26.126Z,-0.30
2019-02-23T07:45:54.599Z,-0.30
2019-02-23T07:48:27.970Z,-0.20
2019-02-23T07:50:57.285Z,-0.20
2019-02-23T07:53:25.713Z,-0.20
2019-02-23T07:55:54.437Z,-0.10
2019-02-23T07:58:22.869Z,-0.10
2019-02-23T08:00:51.344Z,0.00
2019-02-23T08:03:19.764Z,0.00
2019-02-23T08:05:48.276Z,0.00
2019-02-23T08:08:16.980Z,0.10
2019-02-23T08:10:45.501Z,0.10
2019-02-23T08:13:13.933Z,0.20
2019-02-23T08:15:42.401Z,0.20
2019-02-23T08:18:10.824Z,0.30
2019-02-23T08:20:39.253Z,0.30
2019-02-23T08:23:07.722Z,0.30
2019-02-23T08:25:36.169Z,0.40
2019-02-23T08:28:04.634Z,0.40
2019-02-23T08:30:33.125Z,0.50
2019-02-23T08:33:01.573Z,0.50
2019-02-23T08:35:30.067Z,0.60
2019-02-23T08:37:58.536Z,0.70
2019-02-23T08:40:26.970Z,0.70
2019-02-23T08:42:55.716Z,0.70
2019-02-23T08:45:24.137Z,0.70
2019-02-23T08:47:52.577Z,0.80
2019-02-23T08:50:21.010Z,0.80
2019-02-23T08:52:50.488Z,0.80
2019-02-23T08:55:19.157Z,0.90
2019-02-23T08:57:47.585Z,0.80
2019-02-23T09:00:17.773Z,0.90
2019-02-23T09:02:46.241Z,0.90
2019-02-23T09:05:15.041Z,1.00
2019-02-23T09:07:43.505Z,1.10
2019-02-23T09:10:13.881Z,1.20
2019-02-23T09:12:42.332Z,1.30
2019-02-23T09:15:11.617Z,1.30
2019-02-23T09:17:40.071Z,1.40
2019-02-23T09:20:10.332Z,1.40
2019-02-23T09:22:38.774Z,1.50
2019-02-23T09:25:09.062Z,1.60
2019-02-23T09:27:37.526Z,1.70
2019-02-23T09:30:09.093Z,1.70
2019-02-23T09:32:37.541Z,1.80
2019-02-23T09:35:06.504Z,1.80
2019-02-23T09:37:35.295Z,1.90
2019-02-23T09:40:05.305Z,2.00
2019-02-23T09:42:34.099Z,2.00
2019-02-23T09:45:02.545Z,2.00
2019-02-23T09:47:30.988Z,2.10
2019-02-23T09:49:59.421Z,2.10
2019-02-23T09:52:27.911Z,2.20
2019-02-23T09:54:56.333Z,2.20
2019-02-23T09:57:24.793Z,2.30
2019-02-23T09:59:53.291Z,2.30
2019-02-23T10:02:22.001Z,2.30
2019-02-23T10:04:50.423Z,2.30
2019-02-23T10:07:18.865Z,2.30
2019-02-23T10:09:47.401Z,2.20
2019-02-23T10:12:15.905Z,2.20
2019-02-23T10:14:44.328Z,2.20
2019-02-23T10:17:12.805Z,2.20
2019-02-23T10:19:41.230Z,2.30
2019-02-23T10:22:09.690Z,2.30
2019-02-23T10:24:38.113Z,2.30
2019-02-23T10:27:06.569Z,2.40
2019-02-23T10:29:35.013Z,2.40
2019-02-23T10:32:03.542Z,2.50
2019-02-23T10:34:32.040Z,2.50
2019-02-23T10:37:00.797Z,2.60
2019-02-23T10:39:29.229Z,2.60
2019-02-23T10:41:57.684Z,2.50
2019-02-23T10:44:26.114Z,2.60
2019-02-23T10:46:54.541Z,2.60
2019-02-23T10:49:23.052Z,2.60
2019-02-23T10:51:51.960Z,2.70
2019-02-23T10:54:20.961Z,2.70
2019-02-23T10:56:49.959Z,2.70
2019-02-23T10:59:18.594Z,2.70
2019-02-23T11:01:47.091Z,2.70
2019-02-23T11:04:15.839Z,2.70
2019-02-23T11:06:44.369Z,2.70
2019-02-23T11:09:15.119Z,2.70
2019-02-23T11:11:43.681Z,2.80
2019-02-23T11:14:12.113Z,2.80
2019-02-23T11:16:40.906Z,2.80
2019-02-23T11:19:09.338Z,2.80
2019-02-23T11:21:37.884Z,2.80
2019-02-23T11:24:06.381Z,2.80
2019-02-23T11:26:34.817Z,2.80
2019-02-23T11:29:03.620Z,2.90
2019-02-23T11:31:32.046Z,2.90
2019-02-23T11:34:00.791Z,2.90
2019-02-23T11:36:29.210Z,2.90
2019-02-23T11:38:57.670Z,2.90
2019-02-23T11:41:26.441Z,2.90
2019-02-23T11:43:54.905Z,2.90
2019-02-23T11:46:23.349Z,3.00
2019-02-23T11:48:51.769Z,3.00
2019-02-23T11:51:20.235Z,2.90
2019-02-23T11:53:59.701Z,3.00
2019-02-23T11:56:28.120Z,3.00
2019-02-23T11:58:56.566Z,3.10
2019-02-23T12:01:25.006Z,3.00
2019-02-23T12:03:53.427Z,3.10
2019-02-23T12:06:22.214Z,3.10
2019-02-23T12:08:50.665Z,3.10
2019-02-23T12:11:19.233Z,3.20
2019-02-23T12:13:47.653Z,3.30
2019-02-23T12:16:16.185Z,3.30
2019-02-23T12:18:44.636Z,3.30
2019-02-23T12:21:13.086Z,3.30
2019-02-23T12:23:41.533Z,3.40
2019-02-23T12:26:09.952Z,3.40
2019-02-23T12:28:38.421Z,3.40
2019-02-23T12:31:06.934Z,3.40
2019-02-23T12:33:35.428Z,3.40
2019-02-23T12:36:04.198Z,3.50
2019-02-23T12:38:32.617Z,3.50
2019-02-23T12:41:01.317Z,3.50
2019-02-23T12:43:29.734Z,3.50
2019-02-23T12:45:58.645Z,3.60
2019-02-23T12:51:56.554Z,3.70
2019-02-23T12:54:25.041Z,3.60
2019-02-23T12:56:53.926Z,3.60
2019-02-23T12:59:22.352Z,3.70
2019-02-23T13:01:50.789Z,3.70
2019-02-23T13:04:19.217Z,3.70
2019-02-23T13:06:47.737Z,3.70
2019-02-23T13:09:21.665Z,3.70
2019-02-23T13:12:08.361Z,3.80
2019-02-23T13:14:54.876Z,3.90
2019-02-23T13:17:44.140Z,3.90
2019-02-23T13:20:30.821Z,3.80
2019-02-23T13:23:16.700Z,3.80
2019-02-23T13:26:15.165Z,3.80
2019-02-23T13:29:25.286Z,3.80
2019-02-23T13:31:56.801Z,3.80
2019-02-23T13:34:42.941Z,3.90
2019-02-23T13:37:20.387Z,3.90
2019-02-23T13:40:00.806Z,3.90
2019-02-23T13:42:35.594Z,3.90
2019-02-23T13:45:27.034Z,4.00
2019-02-23T13:48:07.226Z,4.00
2019-02-23T13:50:56.850Z,4.00
2019-02-23T13:53:45.051Z,3.90
2019-02-23T13:56:47.065Z,3.90
2019-02-23T13:59:24.677Z,3.80
2019-02-23T14:02:13.067Z,3.90
2019-02-23T14:04:50.726Z,3.90
2019-02-23T14:07:28.294Z,3.90
2019-02-23T14:10:16.505Z,4.00
2019-02-23T14:13:04.351Z,3.90
2019-02-23T14:16:04.786Z,3.90
2019-02-23T14:18:54.288Z,3.90
2019-02-23T14:21:45.336Z,3.80
2019-02-23T14:24:50.183Z,3.80
2019-02-23T14:27:36.921Z,3.80
2019-02-23T14:30:14.307Z,3.90
2019-02-23T14:33:09.356Z,3.80
2019-02-23T14:35:43.666Z,3.80
2019-02-23T14:38:32.822Z,3.70
2019-02-23T14:41:21.119Z,3.70
2019-02-23T14:44:04.771Z,3.70
2019-02-23T14:47:01.886Z,3.70
2019-02-23T14:49:39.721Z,3.70
2019-02-23T14:52:38.607Z,3.60
2019-02-23T14:55:34.187Z,3.60
2019-02-23T14:58:22.520Z,3.50
2019-02-23T15:01:16.445Z,3.50
2019-02-23T15:04:18.241Z,3.50
2019-02-23T15:07:08.095Z,3.50
2019-02-23T15:09:48.603Z,3.50
2019-02-23T15:12:31.926Z,3.40
2019-02-23T15:15:03.627Z,3.40
2019-02-23T15:18:08.125Z,3.40
2019-02-23T15:20:45.645Z,3.40
2019-02-23T15:23:22.307Z,3.30
2019-02-23T15:26:13.953Z,3.30
2019-02-23T15:29:12.930Z,3.30
2019-02-23T15:32:02.658Z,3.30
2019-02-23T15:34:39.937Z,3.30
2019-02-23T15:37:32.660Z,3.20
2019-02-23T15:40:07.703Z,3.20
2019-02-23T15:43:00.564Z,3.10
2019-02-23T15:45:50.895Z,3.10
2019-02-23T15:48:49.691Z,3.00
2019-02-23T15:51:18.150Z,3.00
2019-02-23T15:53:46.809Z,3.00
2019-02-23T15:56:15.533Z,2.90
2019-02-23T15:58:44.032Z,2.90
2019-02-23T16:01:13.096Z,2.80
2019-02-23T16:03:41.725Z,2.80
2019-02-23T16:06:10.191Z,2.80
2019-02-23T16:08:38.805Z,2.70
2019-02-23T16:11:07.899Z,2.60
2019-02-23T16:13:36.477Z,2.70
2019-02-23T16:16:05.587Z,2.60
2019-02-23T16:18:34.253Z,2.60
2019-02-23T16:21:02.811Z,2.50
2019-02-23T16:23:35.255Z,2.40
2019-02-23T16:26:01.743Z,2.40
2019-02-23T16:28:30.261Z,2.30
2019-02-23T16:30:59.623Z,2.20
2019-02-23T16:33:28.406Z,2.20
2019-02-23T16:35:56.833Z,2.10
2019-02-23T16:38:25.303Z,2.10
2019-02-23T16:40:53.798Z,2.00
2019-02-23T16:43:22.246Z,2.00
2019-02-23T16:45:50.700Z,2.00
2019-02-23T16:48:19.162Z,1.90
2019-02-23T16:50:47.587Z,1.90
2019-02-23T16:53:16.021Z,1.80
2019-02-23T16:55:50.956Z,1.80
2019-02-23T16:58:14.618Z,1.70
2019-02-23T17:00:43.047Z,1.70
2019-02-23T17:03:11.489Z,1.70
2019-02-23T17:05:39.909Z,1.70
2019-02-23T17:08:08.348Z,1.60
2019-02-23T17:10:36.896Z,1.60
2019-02-23T17:13:05.390Z,1.50
2019-02-23T17:15:33.817Z,1.50
2019-02-23T17:18:02.278Z,1.40
2019-02-23T17:20:30.693Z,1.40
2019-02-23T17:23:01.993Z,1.40
2019-02-23T17:25:29.615Z,1.30
2019-02-23T17:27:58.053Z,1.30
2019-02-23T17:30:26.477Z,1.30
2019-02-23T17:32:55.092Z,1.30
2019-02-23T17:35:23.850Z,1.20
2019-02-23T17:37:52.638Z,1.20
2019-02-23T17:40:21.053Z,1.20
2019-02-23T17:42:49.553Z,1.20
2019-02-23T17:45:18.390Z,1.20
2019-02-23T17:47:46.809Z,1.20
2019-02-23T17:50:15.246Z,1.20
2019-02-23T17:52:43.740Z,1.10
2019-02-23T17:55:12.210Z,1.10
2019-02-23T17:57:40.633Z,1.00
2019-02-23T18:00:12.781Z,1.00
2019-02-23T18:02:41.249Z,0.90
2019-02-23T18:05:13.673Z,0.90
2019-02-23T18:07:42.389Z,0.90
2019-02-23T18:10:10.820Z,0.90
2019-02-23T18:12:39.284Z,0.80
2019-02-23T18:15:09.458Z,0.80
2019-02-23T18:17:37.882Z,0.80
2019-02-23T18:20:09.658Z,0.80
2019-02-23T18:22:38.089Z,0.70
2019-02-23T18:25:07.791Z,0.70
2019-02-23T18:27:36.409Z,0.70
2019-02-23T18:30:11.428Z,0.70
2019-02-23T18:32:40.339Z,0.60
2019-02-23T18:35:09.662Z,0.60
2019-02-23T18:37:38.098Z,0.50
2019-02-23T18:40:08.179Z,0.50
2019-02-23T18:42:36.625Z,0.50
2019-02-23T18:45:07.198Z,0.50
2019-02-23T18:47:36.043Z,0.50
2019-02-23T18:50:06.015Z,0.40
2019-02-23T18:52:34.495Z,0.40
2019-02-23T18:55:03.705Z,0.40
2019-02-23T18:57:32.238Z,0.40
2019-02-23T19:00:00.981Z,0.30
2019-02-23T19:02:29.449Z,0.30
2019-02-23T19:04:58.030Z,0.30
2019-02-23T19:07:26.453Z,0.30
2019-02-23T19:09:55.042Z,0.30
2019-02-23T19:12:23.471Z,0.20
2019-02-23T19:14:51.973Z,0.20
2019-02-23T19:17:20.406Z,0.20
2019-02-23T19:19:48.865Z,0.20
2019-02-23T19:22:17.303Z,0.10
2019-02-23T19:25:06.069Z,0.10
2019-02-23T19:27:34.833Z,0.10
2019-02-23T19:30:04.261Z,0.20
2019-02-23T19:32:32.725Z,0.10
2019-02-23T19:35:01.164Z,0.10
2019-02-23T19:37:29.584Z,0.20
2019-02-23T19:39:58.015Z,0.10
2019-02-23T19:42:26.469Z,0.10
2019-02-23T19:44:54.903Z,0.10
2019-02-23T19:47:23.392Z,0.10
2019-02-23T19:49:52.490Z,0.10
2019-02-23T19:52:21.189Z,0.10
2019-02-23T19:54:49.701Z,0.10
2019-02-23T19:57:18.122Z,0.10
2019-02-23T19:59:46.557Z,0.10
2019-02-23T20:02:15.007Z,0.10
2019-02-23T20:04:43.821Z,0.00
2019-02-23T20:07:12.274Z,0.00
2019-02-23T20:09:40.688Z,0.00
2019-02-23T20:12:09.124Z,0.00
2019-02-23T20:14:37.624Z,-0.10
2019-02-23T20:17:06.090Z,-0.10
2019-02-23T20:19:34.807Z,-0.10
2019-02-23T20:22:03.236Z,-0.10
2019-02-23T20:24:31.973Z,-0.10
2019-02-23T20:27:00.460Z,-0.20
2019-02-23T20:29:29.103Z,-0.20
2019-02-23T20:31:57.697Z,-0.30
2019-02-23T20:34:26.112Z,-0.30
2019-02-23T20:36:54.577Z,-0.30
2019-02-23T20:39:23.036Z,-0.40
2019-02-23T20:41:52.023Z,-0.40
2019-02-23T20:44:20.873Z,-0.50
2019-02-23T20:46:49.439Z,-0.50
2019-02-23T20:49:17.964Z,-0.50
2019-02-23T20:51:46.470Z,-0.60
2019-02-23T20:54:14.907Z,-0.60
2019-02-23T20:56:43.674Z,-0.70
2019-02-23T20:59:12.129Z,-0.70
2019-02-23T21:01:40.635Z,-0.70
2019-02-23T21:04:09.065Z,-0.80
2019-02-23T21:06:37.513Z,-0.80
2019-02-23T21:09:07.319Z,-0.80
2019-02-23T21:11:36.136Z,-0.80
2019-02-23T21:14:04.641Z,-0.90
2019-02-23T21:16:33.141Z,-0.90
2019-02-23T21:19:01.599Z,-0.90
2019-02-23T21:21:30.022Z,-0.90
2019-02-23T21:23:58.456Z,-0.90
2019-02-23T21:26:26.897Z,-0.90
2019-02-23T21:28:55.358Z,-0.90
2019-02-23T21:31:24.085Z,-0.90
2019-02-23T21:33:52.873Z,-1.00
2019-02-23T21:36:21.308Z,-1.00
2019-02-23T21:38:49.734Z,-1.10
2019-02-23T21:41:18.199Z,-1.10
2019-02-23T21:43:46.651Z,-1.10
2019-02-23T21:46:15.295Z,-1.10
2019-02-23T21:48:44.029Z,-1.10
2019-02-23T21:51:12.469Z,-1.10
2019-02-23T21:54:00.801Z,-1.10
2019-02-23T21:56:29.286Z,-1.20
2019-02-23T21:58:57.736Z,-1.30
2019-02-23T22:01:26.453Z,-1.30
2019-02-23T22:03:54.909Z,-1.30
2019-02-23T22:06:23.722Z,-1.40
2019-02-23T22:08:52.151Z,-1.40
2019-02-23T22:11:20.617Z,-1.40
2019-02-23T22:13:49.120Z,-1.40
2019-02-23T22:16:17.864Z,-1.40
2019-02-23T22:18:46.377Z,-1.40
2019-02-23T22:21:15.145Z,-1.40
2019-02-23T22:23:43.565Z,-1.40
2019-02-23T22:26:12.000Z,-1.40
2019-02-23T22:28:40.442Z,-1.50
2019-02-23T22:31:08.859Z,-1.50
2019-02-23T22:33:37.428Z,-1.50
2019-02-23T22:36:05.941Z,-1.50
2019-02-23T22:38:34.364Z,-1.50
2019-02-23T22:41:02.825Z,-1.50
2019-02-23T22:43:31.255Z,-1.50
2019-02-23T22:45:59.731Z,-1.50
2019-02-23T22:48:28.212Z,-1.60
2019-02-23T22:50:56.801Z,-1.60
2019-02-23T22:53:25.241Z,-1.60
2019-02-23T22:55:53.678Z,-1.70
2019-02-23T22:58:22.126Z,-1.70
2019-02-23T23:00:58.192Z,-1.70
2019-02-23T23:03:26.734Z,-1.70
2019-02-23T23:05:55.572Z,-1.70
2019-02-23T23:08:24.005Z,-1.70
2019-02-23T23:10:52.444Z,-1.70
2019-02-23T23:13:21.977Z,-1.80
2019-02-23T23:15:50.492Z,-1.80
2019-02-23T23:18:18.937Z,-1.80
2019-02-23T23:20:47.365Z,-1.80
2019-02-23T23:23:15.842Z,-1.90
2019-02-23T23:25:44.392Z,-1.90
2019-02-23T23:28:12.922Z,-1.90
2019-02-23T23:30:41.626Z,-1.90
2019-02-23T23:33:10.077Z,-2.00
2019-02-23T23:35:38.799Z,-2.00
2019-02-23T23:38:08.789Z,-2.00
2019-02-23T23:40:37.212Z,-2.00
2019-02-23T23:43:05.662Z,-2.00
2019-02-23T23:45:34.149Z,-2.10
2019-02-23T23:48:02.601Z,-2.20
2019-02-23T23:50:31.095Z,-2.20
2019-02-23T23:52:59.921Z,-2.20
2019-02-23T23:55:28.408Z,-2.20
2019-02-23T23:57:58.579Z,-2.10
